sensor_id;sensor_type;location;lat;lon;timestamp;temperature;humidity
7206;DHT22;3644;53.480;10.004;2022-07-29T00:00:58;16.00;99.90
7206;DHT22;3644;53.480;10.004;2022-07-29T00:03:23;16.10;99.90
7206;DHT22;3644;53.480;10.004;2022-07-29T00:05:49;15.90;99.90
7206;DHT22;3644;53.480;10.004;2022-07-29T00:08:14;15.90;99.90
7206;DHT22;3644;53.480;10.004;2022-07-29T00:10:41;15.80;99.90
7206;DHT22;3644;53.480;10.004;2022-07-29T00:13:06;15.80;99.90
7206;DHT22;3644;53.480;10.004;2022-07-29T00:15:32;15.70;99.90
7206;DHT22;3644;53.480;10.004;2022-07-29T00:17:58;15.70;99.90
7206;DHT22;3644;53.480;10.004;2022-07-29T00:20:23;15.80;99.90
7206;DHT22;3644;53.480;10.004;2022-07-29T00:22:49;15.80;99.90
7206;DHT22;3644;53.480;10.004;2022-07-29T00:25:15;15.70;99.90
7206;DHT22;3644;53.480;10.004;2022-07-29T00:27:40;15.80;99.90
7206;DHT22;3644;53.480;10.004;2022-07-29T00:30:07;15.70;99.90
7206;DHT22;3644;53.480;10.004;2022-07-29T00:32:33;15.60;99.90
7206;DHT22;3644;53.480;10.004;2022-07-29T00:34:58;15.60;99.90
7206;DHT22;3644;53.480;10.004;2022-07-29T00:37:43;15.60;99.90
7206;DHT22;3644;53.480;10.004;2022-07-29T00:40:09;15.50;99.90
7206;DHT22;3644;53.480;10.004;2022-07-29T00:43:01;15.50;99.90
7206;DHT22;3644;53.480;10.004;2022-07-29T00:45:27;15.40;99.90
7206;DHT22;3644;53.480;10.004;2022-07-29T00:47:53;15.30;99.90
7206;DHT22;3644;53.480;10.004;2022-07-29T00:50:19;15.40;99.90
7206;DHT22;3644;53.480;10.004;2022-07-29T00:52:45;15.40;99.90
7206;DHT22;3644;53.480;10.004;2022-07-29T00:55:12;15.30;99.90
7206;DHT22;3644;53.480;10.004;2022-07-29T00:57:39;15.30;99.90
7206;DHT22;3644;53.480;10.004;2022-07-29T01:00:08;15.40;99.90
7206;DHT22;3644;53.480;10.004;2022-07-29T01:02:34;15.40;99.90
7206;DHT22;3644;53.480;10.004;2022-07-29T01:05:01;15.30;99.90
7206;DHT22;3644;53.480;10.004;2022-07-29T01:07:27;15.40;99.90
7206;DHT22;3644;53.480;10.004;2022-07-29T01:09:54;15.30;99.90
7206;DHT22;3644;53.480;10.004;2022-07-29T01:12:25;15.20;99.90
7206;DHT22;3644;53.480;10.004;2022-07-29T01:14:53;15.30;99.90
7206;DHT22;3644;53.480;10.004;2022-07-29T01:23:28;15.30;99.90
7206;DHT22;3644;53.480;10.004;2022-07-29T01:29:02;15.30;99.90
7206;DHT22;3644;53.480;10.004;2022-07-29T01:32:08;15.20;99.90
7206;DHT22;3644;53.480;10.004;2022-07-29T01:34:39;15.10;99.90
7206;DHT22;3644;53.480;10.004;2022-07-29T01:37:15;15.10;99.90
7206;DHT22;3644;53.480;10.004;2022-07-29T01:39:45;15.10;99.90
7206;DHT22;3644;53.480;10.004;2022-07-29T01:42:31;15.10;99.90
7206;DHT22;3644;53.480;10.004;2022-07-29T01:45:00;15.10;99.90
7206;DHT22;3644;53.480;10.004;2022-07-29T01:47:46;15.10;99.90
7206;DHT22;3644;53.480;10.004;2022-07-29T01:50:17;15.10;99.90
7206;DHT22;3644;53.480;10.004;2022-07-29T01:52:58;15.00;99.90
7206;DHT22;3644;53.480;10.004;2022-07-29T01:55:31;15.10;99.90
7206;DHT22;3644;53.480;10.004;2022-07-29T01:57:58;15.00;99.90
7206;DHT22;3644;53.480;10.004;2022-07-29T02:00:26;15.00;99.90
7206;DHT22;3644;53.480;10.004;2022-07-29T02:02:53;15.00;99.90
7206;DHT22;3644;53.480;10.004;2022-07-29T02:05:21;15.00;99.90
7206;DHT22;3644;53.480;10.004;2022-07-29T02:07:48;15.00;99.90
7206;DHT22;3644;53.480;10.004;2022-07-29T02:10:16;15.10;99.90
7206;DHT22;3644;53.480;10.004;2022-07-29T02:12:45;15.20;99.90
7206;DHT22;3644;53.480;10.004;2022-07-29T02:15:11;15.20;99.90
7206;DHT22;3644;53.480;10.004;2022-07-29T02:17:52;15.20;99.90
7206;DHT22;3644;53.480;10.004;2022-07-29T02:20:19;15.10;99.90
7206;DHT22;3644;53.480;10.004;2022-07-29T02:22:46;15.10;99.90
7206;DHT22;3644;53.480;10.004;2022-07-29T02:25:14;15.30;99.90
7206;DHT22;3644;53.480;10.004;2022-07-29T02:27:41;15.30;99.90
7206;DHT22;3644;53.480;10.004;2022-07-29T02:30:08;15.40;99.90
7206;DHT22;3644;53.480;10.004;2022-07-29T02:32:37;15.20;99.90
7206;DHT22;3644;53.480;10.004;2022-07-29T02:35:03;15.20;99.90
7206;DHT22;3644;53.480;10.004;2022-07-29T02:37:30;15.40;99.90
7206;DHT22;3644;53.480;10.004;2022-07-29T02:39:57;15.30;99.90
7206;DHT22;3644;53.480;10.004;2022-07-29T02:42:24;15.30;99.90
7206;DHT22;3644;53.480;10.004;2022-07-29T02:44:51;15.30;99.90
7206;DHT22;3644;53.480;10.004;2022-07-29T02:47:30;15.20;99.90
7206;DHT22;3644;53.480;10.004;2022-07-29T02:50:00;15.30;99.90
7206;DHT22;3644;53.480;10.004;2022-07-29T02:52:52;15.30;99.90
7206;DHT22;3644;53.480;10.004;2022-07-29T02:55:28;15.30;99.90
7206;DHT22;3644;53.480;10.004;2022-07-29T02:57:59;15.40;99.90
7206;DHT22;3644;53.480;10.004;2022-07-29T03:00:28;15.40;99.90
7206;DHT22;3644;53.480;10.004;2022-07-29T03:02:57;15.40;99.90
7206;DHT22;3644;53.480;10.004;2022-07-29T03:05:24;15.40;99.90
7206;DHT22;3644;53.480;10.004;2022-07-29T03:08:17;15.40;99.90
7206;DHT22;3644;53.480;10.004;2022-07-29T03:10:46;15.40;99.90
7206;DHT22;3644;53.480;10.004;2022-07-29T03:13:12;15.40;99.90
7206;DHT22;3644;53.480;10.004;2022-07-29T03:15:39;15.30;99.90
7206;DHT22;3644;53.480;10.004;2022-07-29T03:18:05;15.40;99.90
7206;DHT22;3644;53.480;10.004;2022-07-29T03:20:32;15.40;99.90
7206;DHT22;3644;53.480;10.004;2022-07-29T03:22:57;15.40;99.90
7206;DHT22;3644;53.480;10.004;2022-07-29T03:25:23;15.40;99.90
7206;DHT22;3644;53.480;10.004;2022-07-29T03:27:48;15.60;99.90
7206;DHT22;3644;53.480;10.004;2022-07-29T03:30:14;15.70;99.90
7206;DHT22;3644;53.480;10.004;2022-07-29T03:32:41;15.50;99.90
7206;DHT22;3644;53.480;10.004;2022-07-29T03:35:07;15.50;99.90
7206;DHT22;3644;53.480;10.004;2022-07-29T03:37:33;15.60;99.90
7206;DHT22;3644;53.480;10.004;2022-07-29T03:40:00;15.50;99.90
7206;DHT22;3644;53.480;10.004;2022-07-29T03:42:30;15.50;99.90
7206;DHT22;3644;53.480;10.004;2022-07-29T03:44:57;15.50;99.90
7206;DHT22;3644;53.480;10.004;2022-07-29T03:47:26;15.50;99.90
7206;DHT22;3644;53.480;10.004;2022-07-29T03:49:54;15.50;99.90
7206;DHT22;3644;53.480;10.004;2022-07-29T03:52:22;15.50;99.90
7206;DHT22;3644;53.480;10.004;2022-07-29T03:54:48;15.50;99.90
7206;DHT22;3644;53.480;10.004;2022-07-29T03:57:15;15.50;99.90
7206;DHT22;3644;53.480;10.004;2022-07-29T03:59:41;15.50;99.90
7206;DHT22;3644;53.480;10.004;2022-07-29T04:02:09;15.50;99.90
7206;DHT22;3644;53.480;10.004;2022-07-29T04:04:36;15.60;99.90
7206;DHT22;3644;53.480;10.004;2022-07-29T04:07:02;15.60;99.90
7206;DHT22;3644;53.480;10.004;2022-07-29T04:09:28;15.60;99.90
7206;DHT22;3644;53.480;10.004;2022-07-29T04:11:53;15.60;99.90
7206;DHT22;3644;53.480;10.004;2022-07-29T04:14:19;15.60;99.90
7206;DHT22;3644;53.480;10.004;2022-07-29T04:16:45;15.70;99.90
7206;DHT22;3644;53.480;10.004;2022-07-29T04:19:11;15.70;99.90
7206;DHT22;3644;53.480;10.004;2022-07-29T04:21:40;15.70;99.90
7206;DHT22;3644;53.480;10.004;2022-07-29T04:24:07;15.70;99.90
7206;DHT22;3644;53.480;10.004;2022-07-29T04:26:32;15.90;99.90
7206;DHT22;3644;53.480;10.004;2022-07-29T04:28:58;15.90;99.90
7206;DHT22;3644;53.480;10.004;2022-07-29T04:31:23;16.00;99.90
7206;DHT22;3644;53.480;10.004;2022-07-29T04:33:49;16.00;99.90
7206;DHT22;3644;53.480;10.004;2022-07-29T04:36:14;16.00;99.90
7206;DHT22;3644;53.480;10.004;2022-07-29T04:38:40;16.00;99.90
7206;DHT22;3644;53.480;10.004;2022-07-29T04:41:05;16.10;99.90
7206;DHT22;3644;53.480;10.004;2022-07-29T04:43:32;16.10;99.90
7206;DHT22;3644;53.480;10.004;2022-07-29T04:45:58;16.00;99.90
7206;DHT22;3644;53.480;10.004;2022-07-29T04:48:24;16.10;99.90
7206;DHT22;3644;53.480;10.004;2022-07-29T04:50:50;16.20;99.90
7206;DHT22;3644;53.480;10.004;2022-07-29T04:53:16;16.20;99.90
7206;DHT22;3644;53.480;10.004;2022-07-29T04:55:41;16.30;99.90
7206;DHT22;3644;53.480;10.004;2022-07-29T04:58:07;16.30;99.90
7206;DHT22;3644;53.480;10.004;2022-07-29T05:00:33;16.40;99.90
7206;DHT22;3644;53.480;10.004;2022-07-29T05:02:58;16.60;99.90
7206;DHT22;3644;53.480;10.004;2022-07-29T05:05:24;16.60;99.90
7206;DHT22;3644;53.480;10.004;2022-07-29T05:07:49;16.60;99.90
7206;DHT22;3644;53.480;10.004;2022-07-29T05:10:15;16.60;99.90
7206;DHT22;3644;53.480;10.004;2022-07-29T05:12:40;16.70;99.90
7206;DHT22;3644;53.480;10.004;2022-07-29T05:15:06;16.70;99.90
7206;DHT22;3644;53.480;10.004;2022-07-29T05:17:32;16.70;99.90
7206;DHT22;3644;53.480;10.004;2022-07-29T05:19:57;16.80;99.90
7206;DHT22;3644;53.480;10.004;2022-07-29T05:22:23;16.90;99.90
7206;DHT22;3644;53.480;10.004;2022-07-29T05:24:48;17.00;99.90
7206;DHT22;3644;53.480;10.004;2022-07-29T05:27:14;17.10;99.90
7206;DHT22;3644;53.480;10.004;2022-07-29T05:29:39;17.20;99.90
7206;DHT22;3644;53.480;10.004;2022-07-29T05:32:05;17.20;99.90
7206;DHT22;3644;53.480;10.004;2022-07-29T05:34:31;17.30;99.90
7206;DHT22;3644;53.480;10.004;2022-07-29T05:36:57;17.30;99.90
7206;DHT22;3644;53.480;10.004;2022-07-29T05:39:23;17.40;99.90
7206;DHT22;3644;53.480;10.004;2022-07-29T05:41:48;17.40;99.90
7206;DHT22;3644;53.480;10.004;2022-07-29T05:44:14;17.40;99.90
7206;DHT22;3644;53.480;10.004;2022-07-29T05:46:39;17.30;99.90
7206;DHT22;3644;53.480;10.004;2022-07-29T05:49:05;17.40;99.90
7206;DHT22;3644;53.480;10.004;2022-07-29T05:51:32;17.50;99.90
7206;DHT22;3644;53.480;10.004;2022-07-29T05:53:57;17.70;99.90
7206;DHT22;3644;53.480;10.004;2022-07-29T05:56:23;17.80;99.90
7206;DHT22;3644;53.480;10.004;2022-07-29T05:58:49;17.90;99.90
7206;DHT22;3644;53.480;10.004;2022-07-29T06:01:14;18.00;99.90
7206;DHT22;3644;53.480;10.004;2022-07-29T06:03:40;18.10;99.90
7206;DHT22;3644;53.480;10.004;2022-07-29T06:06:07;18.00;99.90
7206;DHT22;3644;53.480;10.004;2022-07-29T06:08:33;18.00;99.90
7206;DHT22;3644;53.480;10.004;2022-07-29T06:10:59;18.20;99.90
7206;DHT22;3644;53.480;10.004;2022-07-29T06:13:25;18.40;99.90
7206;DHT22;3644;53.480;10.004;2022-07-29T06:15:50;18.40;99.90
7206;DHT22;3644;53.480;10.004;2022-07-29T06:18:16;18.40;99.90
7206;DHT22;3644;53.480;10.004;2022-07-29T06:20:42;18.50;99.90
7206;DHT22;3644;53.480;10.004;2022-07-29T06:23:07;18.60;99.90
7206;DHT22;3644;53.480;10.004;2022-07-29T06:25:33;18.70;99.90
7206;DHT22;3644;53.480;10.004;2022-07-29T06:28:00;18.70;99.90
7206;DHT22;3644;53.480;10.004;2022-07-29T06:30:26;18.80;99.90
7206;DHT22;3644;53.480;10.004;2022-07-29T06:32:52;18.70;99.90
7206;DHT22;3644;53.480;10.004;2022-07-29T06:35:17;18.60;99.90
7206;DHT22;3644;53.480;10.004;2022-07-29T06:37:43;18.70;99.90
7206;DHT22;3644;53.480;10.004;2022-07-29T06:40:09;18.90;99.90
7206;DHT22;3644;53.480;10.004;2022-07-29T06:42:58;18.70;99.90
7206;DHT22;3644;53.480;10.004;2022-07-29T06:45:23;18.90;99.90
7206;DHT22;3644;53.480;10.004;2022-07-29T06:47:49;19.10;99.90
7206;DHT22;3644;53.480;10.004;2022-07-29T06:50:15;19.10;99.90
7206;DHT22;3644;53.480;10.004;2022-07-29T06:52:40;19.30;99.90
7206;DHT22;3644;53.480;10.004;2022-07-29T06:55:07;19.30;99.90
7206;DHT22;3644;53.480;10.004;2022-07-29T06:57:33;19.60;99.90
7206;DHT22;3644;53.480;10.004;2022-07-29T06:59:58;19.40;99.90
7206;DHT22;3644;53.480;10.004;2022-07-29T07:02:24;19.40;99.90
7206;DHT22;3644;53.480;10.004;2022-07-29T07:04:50;19.40;99.90
7206;DHT22;3644;53.480;10.004;2022-07-29T07:07:15;19.50;99.90
7206;DHT22;3644;53.480;10.004;2022-07-29T07:09:41;19.70;99.90
7206;DHT22;3644;53.480;10.004;2022-07-29T07:12:07;19.50;99.90
7206;DHT22;3644;53.480;10.004;2022-07-29T07:14:32;19.50;99.90
7206;DHT22;3644;53.480;10.004;2022-07-29T07:16:59;19.50;99.90
7206;DHT22;3644;53.480;10.004;2022-07-29T07:19:26;19.50;99.90
7206;DHT22;3644;53.480;10.004;2022-07-29T07:21:52;19.50;99.90
7206;DHT22;3644;53.480;10.004;2022-07-29T07:24:18;19.50;99.90
7206;DHT22;3644;53.480;10.004;2022-07-29T07:26:44;19.30;99.90
7206;DHT22;3644;53.480;10.004;2022-07-29T07:29:10;19.40;99.90
7206;DHT22;3644;53.480;10.004;2022-07-29T07:31:36;19.70;99.90
7206;DHT22;3644;53.480;10.004;2022-07-29T07:34:02;19.70;99.90
7206;DHT22;3644;53.480;10.004;2022-07-29T07:36:27;19.70;99.90
7206;DHT22;3644;53.480;10.004;2022-07-29T07:38:53;19.70;99.90
7206;DHT22;3644;53.480;10.004;2022-07-29T07:41:19;19.80;99.90
7206;DHT22;3644;53.480;10.004;2022-07-29T07:43:44;19.90;99.90
7206;DHT22;3644;53.480;10.004;2022-07-29T07:46:10;20.00;99.90
7206;DHT22;3644;53.480;10.004;2022-07-29T07:48:35;20.10;99.90
7206;DHT22;3644;53.480;10.004;2022-07-29T07:51:01;20.20;99.90
7206;DHT22;3644;53.480;10.004;2022-07-29T07:53:26;20.30;99.90
7206;DHT22;3644;53.480;10.004;2022-07-29T07:55:52;20.30;99.90
7206;DHT22;3644;53.480;10.004;2022-07-29T07:58:18;20.30;99.90
7206;DHT22;3644;53.480;10.004;2022-07-29T08:00:43;20.40;99.90
7206;DHT22;3644;53.480;10.004;2022-07-29T08:03:09;20.70;99.90
7206;DHT22;3644;53.480;10.004;2022-07-29T08:05:38;21.10;99.90
7206;DHT22;3644;53.480;10.004;2022-07-29T08:08:04;21.40;99.90
7206;DHT22;3644;53.480;10.004;2022-07-29T08:10:29;21.50;99.90
7206;DHT22;3644;53.480;10.004;2022-07-29T08:13:14;21.50;99.90
7206;DHT22;3644;53.480;10.004;2022-07-29T08:15:39;21.60;99.90
7206;DHT22;3644;53.480;10.004;2022-07-29T08:18:06;21.80;99.90
7206;DHT22;3644;53.480;10.004;2022-07-29T08:20:32;21.90;99.90
7206;DHT22;3644;53.480;10.004;2022-07-29T08:23:01;21.90;99.90
7206;DHT22;3644;53.480;10.004;2022-07-29T08:25:27;21.80;99.90
7206;DHT22;3644;53.480;10.004;2022-07-29T08:27:52;21.50;99.90
7206;DHT22;3644;53.480;10.004;2022-07-29T08:30:18;21.70;99.90
7206;DHT22;3644;53.480;10.004;2022-07-29T08:32:43;21.80;99.90
7206;DHT22;3644;53.480;10.004;2022-07-29T08:35:09;22.20;99.90
7206;DHT22;3644;53.480;10.004;2022-07-29T08:37:35;22.30;99.90
7206;DHT22;3644;53.480;10.004;2022-07-29T08:40:00;22.10;99.90
7206;DHT22;3644;53.480;10.004;2022-07-29T08:42:26;21.80;99.90
7206;DHT22;3644;53.480;10.004;2022-07-29T08:44:51;21.90;99.90
7206;DHT22;3644;53.480;10.004;2022-07-29T08:47:18;22.10;99.90
7206;DHT22;3644;53.480;10.004;2022-07-29T08:49:44;22.00;99.90
7206;DHT22;3644;53.480;10.004;2022-07-29T08:52:12;22.20;99.90
7206;DHT22;3644;53.480;10.004;2022-07-29T08:54:40;22.50;99.90
7206;DHT22;3644;53.480;10.004;2022-07-29T08:57:08;22.60;99.90
7206;DHT22;3644;53.480;10.004;2022-07-29T08:59:34;22.70;99.90
7206;DHT22;3644;53.480;10.004;2022-07-29T09:02:01;22.30;99.90
7206;DHT22;3644;53.480;10.004;2022-07-29T09:04:30;22.40;99.90
7206;DHT22;3644;53.480;10.004;2022-07-29T09:07:00;22.40;99.90
7206;DHT22;3644;53.480;10.004;2022-07-29T09:09:28;22.50;99.90
7206;DHT22;3644;53.480;10.004;2022-07-29T09:11:54;22.70;99.90
7206;DHT22;3644;53.480;10.004;2022-07-29T09:14:20;22.90;99.90
7206;DHT22;3644;53.480;10.004;2022-07-29T09:16:54;22.80;99.90
7206;DHT22;3644;53.480;10.004;2022-07-29T09:21:53;23.30;99.90
7206;DHT22;3644;53.480;10.004;2022-07-29T09:27:24;23.60;99.90
7206;DHT22;3644;53.480;10.004;2022-07-29T09:30:18;23.70;99.90
7206;DHT22;3644;53.480;10.004;2022-07-29T09:32:57;23.80;99.90
7206;DHT22;3644;53.480;10.004;2022-07-29T09:35:24;24.00;99.90
7206;DHT22;3644;53.480;10.004;2022-07-29T09:37:50;24.20;99.90
7206;DHT22;3644;53.480;10.004;2022-07-29T09:40:25;24.30;99.90
7206;DHT22;3644;53.480;10.004;2022-07-29T09:42:51;24.40;99.90
7206;DHT22;3644;53.480;10.004;2022-07-29T09:47:53;24.40;99.90
7206;DHT22;3644;53.480;10.004;2022-07-29T09:50:21;24.10;99.90
7206;DHT22;3644;53.480;10.004;2022-07-29T09:52:51;24.10;99.90
7206;DHT22;3644;53.480;10.004;2022-07-29T09:55:17;24.30;99.90
7206;DHT22;3644;53.480;10.004;2022-07-29T09:57:43;24.50;99.90
7206;DHT22;3644;53.480;10.004;2022-07-29T10:02:37;24.80;99.90
7206;DHT22;3644;53.480;10.004;2022-07-29T10:05:05;24.60;99.90
7206;DHT22;3644;53.480;10.004;2022-07-29T10:10:27;24.50;99.90
7206;DHT22;3644;53.480;10.004;2022-07-29T10:12:58;24.50;99.90
7206;DHT22;3644;53.480;10.004;2022-07-29T10:15:25;24.50;99.90
7206;DHT22;3644;53.480;10.004;2022-07-29T10:17:52;24.50;99.90
7206;DHT22;3644;53.480;10.004;2022-07-29T10:20:19;24.40;99.90
7206;DHT22;3644;53.480;10.004;2022-07-29T10:22:45;24.50;99.90
7206;DHT22;3644;53.480;10.004;2022-07-29T10:25:12;24.50;99.90
7206;DHT22;3644;53.480;10.004;2022-07-29T10:27:37;24.10;99.90
7206;DHT22;3644;53.480;10.004;2022-07-29T10:30:04;24.00;99.90
7206;DHT22;3644;53.480;10.004;2022-07-29T10:38:17;24.60;99.90
7206;DHT22;3644;53.480;10.004;2022-07-29T10:43:40;24.50;99.90
7206;DHT22;3644;53.480;10.004;2022-07-29T10:46:06;24.80;99.90
7206;DHT22;3644;53.480;10.004;2022-07-29T10:48:32;25.20;99.90
7206;DHT22;3644;53.480;10.004;2022-07-29T10:56:28;25.40;99.90
7206;DHT22;3644;53.480;10.004;2022-07-29T11:01:53;25.70;99.90
7206;DHT22;3644;53.480;10.004;2022-07-29T11:07:09;25.70;99.90
7206;DHT22;3644;53.480;10.004;2022-07-29T11:09:34;25.40;99.90
7206;DHT22;3644;53.480;10.004;2022-07-29T11:12:00;25.70;99.90
7206;DHT22;3644;53.480;10.004;2022-07-29T11:17:18;25.80;99.90
7206;DHT22;3644;53.480;10.004;2022-07-29T11:19:43;25.90;99.90
7206;DHT22;3644;53.480;10.004;2022-07-29T11:22:10;25.70;99.90
7206;DHT22;3644;53.480;10.004;2022-07-29T11:24:37;26.00;99.90
7206;DHT22;3644;53.480;10.004;2022-07-29T11:27:07;26.20;99.90
7206;DHT22;3644;53.480;10.004;2022-07-29T11:29:39;26.20;99.90
7206;DHT22;3644;53.480;10.004;2022-07-29T11:32:11;26.00;99.90
7206;DHT22;3644;53.480;10.004;2022-07-29T11:34:37;25.70;99.90
7206;DHT22;3644;53.480;10.004;2022-07-29T11:47:41;25.80;99.90
7206;DHT22;3644;53.480;10.004;2022-07-29T11:50:09;26.00;99.90
7206;DHT22;3644;53.480;10.004;2022-07-29T11:55:09;26.30;99.90
7206;DHT22;3644;53.480;10.004;2022-07-29T11:57:34;26.30;99.90
7206;DHT22;3644;53.480;10.004;2022-07-29T12:00:01;26.40;99.90
7206;DHT22;3644;53.480;10.004;2022-07-29T12:02:39;26.30;99.90
7206;DHT22;3644;53.480;10.004;2022-07-29T12:05:05;26.30;99.90
7206;DHT22;3644;53.480;10.004;2022-07-29T12:07:32;26.50;99.20
7206;DHT22;3644;53.480;10.004;2022-07-29T12:09:59;26.60;99.90
7206;DHT22;3644;53.480;10.004;2022-07-29T12:12:25;26.80;99.60
7206;DHT22;3644;53.480;10.004;2022-07-29T12:14:51;26.50;99.90
7206;DHT22;3644;53.480;10.004;2022-07-29T12:17:32;26.70;99.90
7206;DHT22;3644;53.480;10.004;2022-07-29T12:20:03;27.10;99.90
7206;DHT22;3644;53.480;10.004;2022-07-29T12:22:32;27.50;99.50
7206;DHT22;3644;53.480;10.004;2022-07-29T12:25:04;27.80;97.50
7206;DHT22;3644;53.480;10.004;2022-07-29T12:27:30;27.90;97.60
7206;DHT22;3644;53.480;10.004;2022-07-29T12:29:57;27.50;96.80
7206;DHT22;3644;53.480;10.004;2022-07-29T12:32:23;27.20;96.50
7206;DHT22;3644;53.480;10.004;2022-07-29T12:34:49;27.20;96.60
7206;DHT22;3644;53.480;10.004;2022-07-29T12:37:16;27.20;95.70
7206;DHT22;3644;53.480;10.004;2022-07-29T12:39:41;27.50;96.90
7206;DHT22;3644;53.480;10.004;2022-07-29T12:42:14;27.90;93.60
7206;DHT22;3644;53.480;10.004;2022-07-29T12:44:47;27.60;92.90
7206;DHT22;3644;53.480;10.004;2022-07-29T12:47:14;27.30;92.80
7206;DHT22;3644;53.480;10.004;2022-07-29T12:49:40;27.60;92.30
7206;DHT22;3644;53.480;10.004;2022-07-29T12:54:50;28.00;92.70
7206;DHT22;3644;53.480;10.004;2022-07-29T12:57:15;27.90;90.80
7206;DHT22;3644;53.480;10.004;2022-07-29T12:59:41;27.90;90.70
7206;DHT22;3644;53.480;10.004;2022-07-29T13:02:06;27.70;90.00
7206;DHT22;3644;53.480;10.004;2022-07-29T13:04:33;27.70;90.70
7206;DHT22;3644;53.480;10.004;2022-07-29T13:07:06;27.90;90.60
7206;DHT22;3644;53.480;10.004;2022-07-29T13:09:44;28.00;87.80
7206;DHT22;3644;53.480;10.004;2022-07-29T13:12:12;28.30;90.00
7206;DHT22;3644;53.480;10.004;2022-07-29T13:14:45;28.30;88.20
7206;DHT22;3644;53.480;10.004;2022-07-29T13:17:12;28.20;86.40
7206;DHT22;3644;53.480;10.004;2022-07-29T13:19:46;28.30;88.30
7206;DHT22;3644;53.480;10.004;2022-07-29T13:22:14;28.50;82.80
7206;DHT22;3644;53.480;10.004;2022-07-29T13:24:54;28.60;84.50
7206;DHT22;3644;53.480;10.004;2022-07-29T13:27:22;28.30;84.40
7206;DHT22;3644;53.480;10.004;2022-07-29T13:29:48;28.90;85.30
7206;DHT22;3644;53.480;10.004;2022-07-29T13:32:16;28.50;86.10
7206;DHT22;3644;53.480;10.004;2022-07-29T13:34:42;28.50;80.80
7206;DHT22;3644;53.480;10.004;2022-07-29T13:37:07;28.20;81.60
7206;DHT22;3644;53.480;10.004;2022-07-29T13:39:33;28.40;85.00
7206;DHT22;3644;53.480;10.004;2022-07-29T13:41:59;28.50;89.00
7206;DHT22;3644;53.480;10.004;2022-07-29T13:44:24;28.80;83.00
7206;DHT22;3644;53.480;10.004;2022-07-29T13:46:50;28.90;83.90
7206;DHT22;3644;53.480;10.004;2022-07-29T13:49:16;29.20;84.50
7206;DHT22;3644;53.480;10.004;2022-07-29T13:51:41;29.50;82.40
7206;DHT22;3644;53.480;10.004;2022-07-29T13:54:07;29.80;83.30
7206;DHT22;3644;53.480;10.004;2022-07-29T13:56:32;30.00;82.10
7206;DHT22;3644;53.480;10.004;2022-07-29T13:58:58;30.10;81.80
7206;DHT22;3644;53.480;10.004;2022-07-29T14:01:24;30.20;79.30
7206;DHT22;3644;53.480;10.004;2022-07-29T14:03:49;30.40;78.40
7206;DHT22;3644;53.480;10.004;2022-07-29T14:06:15;30.50;76.90
7206;DHT22;3644;53.480;10.004;2022-07-29T14:08:41;30.50;76.40
7206;DHT22;3644;53.480;10.004;2022-07-29T14:11:06;30.60;73.60
7206;DHT22;3644;53.480;10.004;2022-07-29T14:13:32;30.80;74.70
7206;DHT22;3644;53.480;10.004;2022-07-29T14:15:57;30.90;75.70
7206;DHT22;3644;53.480;10.004;2022-07-29T14:18:23;29.90;87.20
7206;DHT22;3644;53.480;10.004;2022-07-29T14:20:49;29.30;90.30
7206;DHT22;3644;53.480;10.004;2022-07-29T14:23:14;28.50;92.40
7206;DHT22;3644;53.480;10.004;2022-07-29T14:25:40;28.20;94.10
7206;DHT22;3644;53.480;10.004;2022-07-29T14:28:06;28.50;95.20
7206;DHT22;3644;53.480;10.004;2022-07-29T14:30:32;28.40;95.40
7206;DHT22;3644;53.480;10.004;2022-07-29T14:32:57;28.00;95.70
7206;DHT22;3644;53.480;10.004;2022-07-29T14:35:23;27.80;97.40
7206;DHT22;3644;53.480;10.004;2022-07-29T14:37:48;27.90;99.30
7206;DHT22;3644;53.480;10.004;2022-07-29T14:40:14;28.00;97.40
7206;DHT22;3644;53.480;10.004;2022-07-29T14:42:39;27.90;98.40
7206;DHT22;3644;53.480;10.004;2022-07-29T14:45:06;27.70;99.50
7206;DHT22;3644;53.480;10.004;2022-07-29T14:47:32;27.80;99.60
7206;DHT22;3644;53.480;10.004;2022-07-29T14:49:58;27.60;99.90
7206;DHT22;3644;53.480;10.004;2022-07-29T14:52:24;27.50;99.90
7206;DHT22;3644;53.480;10.004;2022-07-29T14:54:49;27.00;99.90
7206;DHT22;3644;53.480;10.004;2022-07-29T14:57:15;26.90;99.90
7206;DHT22;3644;53.480;10.004;2022-07-29T14:59:41;27.00;99.90
7206;DHT22;3644;53.480;10.004;2022-07-29T15:02:07;27.30;99.90
7206;DHT22;3644;53.480;10.004;2022-07-29T15:04:32;27.00;99.90
7206;DHT22;3644;53.480;10.004;2022-07-29T15:06:58;26.70;99.90
7206;DHT22;3644;53.480;10.004;2022-07-29T15:09:23;26.40;99.90
7206;DHT22;3644;53.480;10.004;2022-07-29T15:11:49;26.30;99.90
7206;DHT22;3644;53.480;10.004;2022-07-29T15:14:14;26.20;99.90
7206;DHT22;3644;53.480;10.004;2022-07-29T15:16:40;26.00;99.90
7206;DHT22;3644;53.480;10.004;2022-07-29T15:19:08;26.30;99.90
7206;DHT22;3644;53.480;10.004;2022-07-29T15:21:33;26.00;99.90
7206;DHT22;3644;53.480;10.004;2022-07-29T15:23:59;26.00;99.90
7206;DHT22;3644;53.480;10.004;2022-07-29T15:26:25;25.90;99.90
7206;DHT22;3644;53.480;10.004;2022-07-29T15:28:51;25.70;99.90
7206;DHT22;3644;53.480;10.004;2022-07-29T15:31:16;25.70;99.90
7206;DHT22;3644;53.480;10.004;2022-07-29T15:33:44;25.70;99.90
7206;DHT22;3644;53.480;10.004;2022-07-29T15:36:09;25.80;99.90
7206;DHT22;3644;53.480;10.004;2022-07-29T15:38:37;25.90;99.90
7206;DHT22;3644;53.480;10.004;2022-07-29T15:41:03;25.90;99.90
7206;DHT22;3644;53.480;10.004;2022-07-29T15:43:28;26.00;99.90
7206;DHT22;3644;53.480;10.004;2022-07-29T15:45:54;26.00;99.90
7206;DHT22;3644;53.480;10.004;2022-07-29T15:48:38;26.00;99.90
7206;DHT22;3644;53.480;10.004;2022-07-29T15:51:04;26.10;99.90
7206;DHT22;3644;53.480;10.004;2022-07-29T15:53:29;25.90;99.90
7206;DHT22;3644;53.480;10.004;2022-07-29T15:55:55;25.70;99.90
7206;DHT22;3644;53.480;10.004;2022-07-29T15:58:20;25.70;99.90
7206;DHT22;3644;53.480;10.004;2022-07-29T16:00:47;25.80;99.90
7206;DHT22;3644;53.480;10.004;2022-07-29T16:03:12;25.80;99.90
7206;DHT22;3644;53.480;10.004;2022-07-29T16:05:38;25.70;99.90
7206;DHT22;3644;53.480;10.004;2022-07-29T16:08:04;25.70;99.90
7206;DHT22;3644;53.480;10.004;2022-07-29T16:10:29;25.70;99.90
7206;DHT22;3644;53.480;10.004;2022-07-29T16:12:55;25.80;99.90
7206;DHT22;3644;53.480;10.004;2022-07-29T16:15:20;25.90;99.90
7206;DHT22;3644;53.480;10.004;2022-07-29T16:17:46;25.70;99.90
7206;DHT22;3644;53.480;10.004;2022-07-29T16:20:11;25.80;99.90
7206;DHT22;3644;53.480;10.004;2022-07-29T16:22:37;25.80;99.90
7206;DHT22;3644;53.480;10.004;2022-07-29T16:25:02;25.70;99.90
7206;DHT22;3644;53.480;10.004;2022-07-29T16:27:28;25.70;99.90
7206;DHT22;3644;53.480;10.004;2022-07-29T16:29:54;25.90;99.90
7206;DHT22;3644;53.480;10.004;2022-07-29T16:32:20;25.80;99.90
7206;DHT22;3644;53.480;10.004;2022-07-29T16:34:45;25.70;99.90
7206;DHT22;3644;53.480;10.004;2022-07-29T16:37:11;25.60;99.90
7206;DHT22;3644;53.480;10.004;2022-07-29T16:39:36;25.70;99.90
7206;DHT22;3644;53.480;10.004;2022-07-29T16:42:02;25.70;99.90
7206;DHT22;3644;53.480;10.004;2022-07-29T16:44:28;25.70;99.90
7206;DHT22;3644;53.480;10.004;2022-07-29T16:46:53;25.70;99.90